Time;durP1;ratioP1;P1;durP2;ratioP2;P2;SDS_P1;SDS_P2;PMS_P1;PMS_P2;Temp;Humidity;BMP_temperature;BMP_pressure;BME280_temperature;BME280_humidity;BME280_pressure;Samples;Min_cycle;Max_cycle;Signal;HPM_P1;HPM_P2
2023/06/10 00:00:45;;;;;;;;;;;;;;;20.62;50.66309;101646.4;;;;-68
2023/06/10 00:05:48;;;;;;;;;;;;;;;20.57;50.69238;101645.5;;;;-69
2023/06/10 00:10:47;;;;;;;;;;;;;;;20.5;50.75195;101647.3;;;;-67
2023/06/10 00:15:45;;;;;;;;;;;;;;;20.45;50.89453;101649.9;;;;-68
2023/06/10 00:20:45;;;;;;;;;;;;;;;20.38;51.19434;101653.7;;;;-67
2023/06/10 00:21:09;;;;;;;0.2;0.1;;;;;;;;;;;;;-68
2023/06/10 00:25:44;;;;;;;;;;;;;;;20.29;51.15039;101650.4;;;;-68
2023/06/10 00:30:52;;;;;;;;;;;;;;;20.25;51.04297;101649.4;;;;-69
2023/06/10 00:35:44;;;;;;;;;;;;;;;20.2;51.12891;101646.3;;;;-67
2023/06/10 00:40:46;;;;;;;;;;;;;;;20.14;51.33984;101650;;;;-69
2023/06/10 00:45:44;;;;;;;;;;;;;;;20.13;51.25781;101651.1;;;;-67
2023/06/10 00:50:45;;;;;;;;;;;;;;;20.08;51.27441;101656.2;;;;-67
2023/06/10 00:51:13;;;;;;;0.2;0.1;;;;;;;;;;;;;-68
2023/06/10 00:55:45;;;;;;;;;;;;;;;20.03;51.13184;101656;;;;-66
2023/06/10 01:00:44;;;;;;;;;;;;;;;19.98;51.05859;101655;;;;-69
2023/06/10 01:05:45;;;;;;;;;;;;;;;19.92;51.05176;101652;;;;-68
2023/06/10 01:10:47;;;;;;;;;;;;;;;19.84;50.96191;101654;;;;-69
2023/06/10 01:15:45;;;;;;;;;;;;;;;19.83;51.37109;101657.3;;;;-67
2023/06/10 01:20:46;;;;;;;;;;;;;;;19.76;51.3291;101662.4;;;;-68
2023/06/10 01:21:14;;;;;;;0.3;0.1;;;;;;;;;;;;;-67
2023/06/10 01:25:49;;;;;;;;;;;;;;;19.73;51.3252;101658.6;;;;-67
2023/06/10 01:30:56;;;;;;;;;;;;;;;19.66;51.52344;101660;;;;-70
2023/06/10 01:35:47;;;;;;;;;;;;;;;19.64;51.52051;101659.8;;;;-67
2023/06/10 01:40:44;;;;;;;;;;;;;;;19.6;51.56152;101658.3;;;;-69
2023/06/10 01:45:45;;;;;;;;;;;;;;;19.54;51.81543;101652.3;;;;-69
2023/06/10 01:50:44;;;;;;;;;;;;;;;19.49;52.23145;101658.4;;;;-67
2023/06/10 01:51:17;;;;;;;0.2;0;;;;;;;;;;;;;-69
2023/06/10 01:55:44;;;;;;;;;;;;;;;19.49;51.91309;101660.2;;;;-67
2023/06/10 02:00:44;;;;;;;;;;;;;;;19.42;52.08691;101662.7;;;;-68
2023/06/10 02:05:45;;;;;;;;;;;;;;;19.42;52.2002;101662.9;;;;-68
2023/06/10 02:10:44;;;;;;;;;;;;;;;19.4;52.11914;101666.7;;;;-68
2023/06/10 02:15:44;;;;;;;;;;;;;;;19.34;52.37305;101667.8;;;;-68
2023/06/10 02:20:44;;;;;;;;;;;;;;;19.28;52.29785;101664.8;;;;-69
2023/06/10 02:21:20;;;;;;;0.4;0.1;;;;;;;;;;;;;-68
2023/06/10 02:25:44;;;;;;;;;;;;;;;19.27;52.2627;101668.2;;;;-68
2023/06/10 02:30:46;;;;;;;;;;;;;;;19.21;52.26855;101676.1;;;;-68
2023/06/10 02:35:45;;;;;;;;;;;;;;;19.18;52.2168;101672.1;;;;-67
2023/06/10 02:40:45;;;;;;;;;;;;;;;19.17;52.40918;101674.7;;;;-68
2023/06/10 02:45:44;;;;;;;;;;;;;;;19.09;52.45898;101672.8;;;;-67
2023/06/10 02:50:45;;;;;;;;;;;;;;;19.04;52.55371;101671.9;;;;-68
2023/06/10 02:51:23;;;;;;;0.3;0.1;;;;;;;;;;;;;-68
2023/06/10 02:55:44;;;;;;;;;;;;;;;19.01;52.41504;101670.7;;;;-68
2023/06/10 03:00:45;;;;;;;;;;;;;;;18.99;52.24121;101672.8;;;;-68
2023/06/10 03:05:45;;;;;;;;;;;;;;;18.94;52.30469;101672.9;;;;-68
2023/06/10 03:10:44;;;;;;;;;;;;;;;18.91;52.38965;101670.6;;;;-69
2023/06/10 03:15:45;;;;;;;;;;;;;;;18.86;52.29395;101676;;;;-67
2023/06/10 03:20:45;;;;;;;;;;;;;;;18.83;52.38086;101679.4;;;;-69
2023/06/10 03:21:26;;;;;;;0.2;0.1;;;;;;;;;;;;;-67
2023/06/10 03:25:44;;;;;;;;;;;;;;;18.79;52.38867;101683;;;;-66
2023/06/10 03:30:44;;;;;;;;;;;;;;;18.78;52.1709;101686.9;;;;-67
2023/06/10 03:35:44;;;;;;;;;;;;;;;18.73;52.35938;101685.2;;;;-67
2023/06/10 03:40:44;;;;;;;;;;;;;;;18.69;52.46777;101688.8;;;;-69
2023/06/10 03:45:45;;;;;;;;;;;;;;;18.68;52.58008;101688.7;;;;-68
2023/06/10 03:50:44;;;;;;;;;;;;;;;18.63;52.99414;101689.3;;;;-68
2023/06/10 03:51:28;;;;;;;0.2;0.1;;;;;;;;;;;;;-67
2023/06/10 03:55:45;;;;;;;;;;;;;;;18.64;52.70117;101692.6;;;;-66
2023/06/10 04:00:45;;;;;;;;;;;;;;;18.61;52.82129;101694.8;;;;-68
2023/06/10 04:05:45;;;;;;;;;;;;;;;18.61;52.83301;101694.5;;;;-69
2023/06/10 04:10:44;;;;;;;;;;;;;;;18.63;53.07324;101696.9;;;;-66
2023/06/10 04:15:44;;;;;;;;;;;;;;;18.62;52.95898;101701.4;;;;-66
2023/06/10 04:20:44;;;;;;;;;;;;;;;18.66;53.05566;101702.3;;;;-67
2023/06/10 04:21:30;;;;;;;1.3;0.4;;;;;;;;;;;;;-69
2023/06/10 04:25:44;;;;;;;;;;;;;;;18.65;52.82715;101711;;;;-67
2023/06/10 04:30:45;;;;;;;;;;;;;;;18.65;52.79297;101710.7;;;;-67
2023/06/10 04:35:47;;;;;;;;;;;;;;;18.68;52.72754;101714.5;;;;-68
2023/06/10 04:40:44;;;;;;;;;;;;;;;18.7;52.93457;101717.3;;;;-67
2023/06/10 04:45:45;;;;;;;;;;;;;;;18.72;52.80176;101717.3;;;;-67
2023/06/10 04:50:44;;;;;;;;;;;;;;;18.74;53.17871;101720.3;;;;-68
2023/06/10 04:51:33;;;;;;;0.3;0.2;;;;;;;;;;;;;-70
2023/06/10 04:55:45;;;;;;;;;;;;;;;18.78;53.20605;101720.7;;;;-69
2023/06/10 05:00:45;;;;;;;;;;;;;;;18.82;53.5166;101723.8;;;;-66
2023/06/10 05:05:47;;;;;;;;;;;;;;;18.84;53.42969;101727;;;;-67
2023/06/10 05:10:44;;;;;;;;;;;;;;;18.92;53.42773;101727.2;;;;-66
2023/06/10 05:15:46;;;;;;;;;;;;;;;18.97;53.56934;101728.3;;;;-68
2023/06/10 05:20:45;;;;;;;;;;;;;;;19.17;53.28711;101729.7;;;;-68
2023/06/10 05:21:35;;;;;;;0.3;0.1;;;;;;;;;;;;;-67
2023/06/10 05:25:45;;;;;;;;;;;;;;;19.48;52.94824;101729;;;;-67
2023/06/10 05:30:44;;;;;;;;;;;;;;;20.06;51.72852;101732.3;;;;-68
2023/06/10 05:35:44;;;;;;;;;;;;;;;20.63;50.5957;101734;;;;-67
2023/06/10 05:40:44;;;;;;;;;;;;;;;21.19;49.45801;101735.8;;;;-67
2023/06/10 05:45:46;;;;;;;;;;;;;;;21.61;48.51953;101730.8;;;;-68
2023/06/10 05:50:48;;;;;;;;;;;;;;;22.07;47.9043;101730;;;;-69
2023/06/10 05:51:38;;;;;;;0.3;0.2;;;;;;;;;;;;;-68
2023/06/10 05:55:44;;;;;;;;;;;;;;;22.41;47.1377;101731.4;;;;-68
2023/06/10 06:00:44;;;;;;;;;;;;;;;22.7;46.94922;101734.1;;;;-68
2023/06/10 06:05:45;;;;;;;;;;;;;;;23.09;46.23145;101729.8;;;;-68
2023/06/10 06:10:44;;;;;;;;;;;;;;;23.39;45.98633;101729.2;;;;-68
2023/06/10 06:15:44;;;;;;;;;;;;;;;23.72;45.44434;101729;;;;-68
2023/06/10 06:20:44;;;;;;;;;;;;;;;23.96;45.18066;101723.4;;;;-69
2023/06/10 06:21:40;;;;;;;0.2;0.1;;;;;;;;;;;;;-67
2023/06/10 06:25:44;;;;;;;;;;;;;;;24.22;44.6875;101732;;;;-68
2023/06/10 06:30:46;;;;;;;;;;;;;;;24.48;44.45996;101732.4;;;;-67
2023/06/10 06:35:44;;;;;;;;;;;;;;;24.63;44.31348;101734;;;;-69
2023/06/10 06:40:45;;;;;;;;;;;;;;;24.87;43.80371;101729.5;;;;-68
2023/06/10 06:45:44;;;;;;;;;;;;;;;25.12;43.59863;101736.2;;;;-68
2023/06/10 06:50:46;;;;;;;;;;;;;;;25.37;43.28711;101729.9;;;;-68
2023/06/10 06:51:47;;;;;;;0.2;0;;;;;;;;;;;;;-68
2023/06/10 06:55:44;;;;;;;;;;;;;;;25.69;42.79688;101739.2;;;;-68
2023/06/10 07:00:44;;;;;;;;;;;;;;;25.86;42.37305;101737.2;;;;-69
2023/06/10 07:05:44;;;;;;;;;;;;;;;25.98;42.38379;101740.8;;;;-68
2023/06/10 07:10:45;;;;;;;;;;;;;;;26.18;42.08984;101745.1;;;;-67
2023/06/10 07:15:44;;;;;;;;;;;;;;;26.46;41.61719;101745.7;;;;-68
2023/06/10 07:20:45;;;;;;;;;;;;;;;26.6;41.40918;101746.7;;;;-67
2023/06/10 07:21:47;;;;;;;0.2;0;;;;;;;;;;;;;-68
2023/06/10 07:25:46;;;;;;;;;;;;;;;26.78;41.22852;101751.4;;;;-67
2023/06/10 07:30:44;;;;;;;;;;;;;;;26.83;41.03516;101748.4;;;;-68
2023/06/10 07:35:45;;;;;;;;;;;;;;;27;41.00488;101748.7;;;;-67
2023/06/10 07:40:44;;;;;;;;;;;;;;;27.07;40.95313;101750.6;;;;-68
2023/06/10 07:45:46;;;;;;;;;;;;;;;27.15;40.72656;101754.6;;;;-68
2023/06/10 07:50:44;;;;;;;;;;;;;;;27.41;40.62305;101756;;;;-68
2023/06/10 07:51:51;;;;;;;0.2;0.1;;;;;;;;;;;;;-67
2023/06/10 07:55:44;;;;;;;;;;;;;;;27.55;40.49512;101759;;;;-67
2023/06/10 08:00:44;;;;;;;;;;;;;;;27.68;40.3916;101759.3;;;;-68
2023/06/10 08:05:44;;;;;;;;;;;;;;;27.83;40.4043;101760.3;;;;-68
2023/06/10 08:10:44;;;;;;;;;;;;;;;27.95;40.29883;101761.6;;;;-69
2023/06/10 08:15:44;;;;;;;;;;;;;;;28.11;40.10352;101766.6;;;;-68
2023/06/10 08:20:44;;;;;;;;;;;;;;;28.19;40.06348;101764.3;;;;-67
2023/06/10 08:21:55;;;;;;;0.2;0;;;;;;;;;;;;;-66
2023/06/10 08:25:47;;;;;;;;;;;;;;;28.39;39.90723;101766.9;;;;-68
2023/06/10 08:30:45;;;;;;;;;;;;;;;28.55;39.83887;101770.9;;;;-72
2023/06/10 08:35:45;;;;;;;;;;;;;;;28.74;39.55273;101768.3;;;;-68
2023/06/10 08:40:45;;;;;;;;;;;;;;;28.85;39.46875;101764.3;;;;-68
2023/06/10 08:45:46;;;;;;;;;;;;;;;29.13;39.13086;101768.3;;;;-68
2023/06/10 08:50:45;;;;;;;;;;;;;;;29.26;38.75586;101768.5;;;;-67
2023/06/10 08:52:02;;;;;;;0.2;0.1;;;;;;;;;;;;;-67
2023/06/10 08:55:46;;;;;;;;;;;;;;;29.51;38.57813;101769.7;;;;-69
2023/06/10 09:00:45;;;;;;;;;;;;;;;29.59;38.42285;101773.8;;;;-68
2023/06/10 09:05:44;;;;;;;;;;;;;;;29.67;38.10156;101776;;;;-68
2023/06/10 09:10:44;;;;;;;;;;;;;;;29.75;38.16602;101768.5;;;;-67
2023/06/10 09:15:45;;;;;;;;;;;;;;;29.97;37.81055;101770.2;;;;-66
2023/06/10 09:20:45;;;;;;;;;;;;;;;30.24;37.49316;101767.2;;;;-67
2023/06/10 09:22:05;;;;;;;0.2;0.1;;;;;;;;;;;;;-69
2023/06/10 09:25:44;;;;;;;;;;;;;;;30.49;37.11523;101772.1;;;;-68
2023/06/10 09:30:44;;;;;;;;;;;;;;;30.58;36.71191;101772.2;;;;-69
2023/06/10 09:35:49;;;;;;;;;;;;;;;30.72;36.50098;101774.9;;;;-68
2023/06/10 09:40:52;;;;;;;;;;;;;;;30.84;35.79395;101775;;;;-68
2023/06/10 09:45:44;;;;;;;;;;;;;;;30.87;35.97363;101771.5;;;;-67
2023/06/10 09:50:49;;;;;;;;;;;;;;;31.07;35.74219;101773.6;;;;-69
2023/06/10 09:52:10;;;;;;;0.2;0;;;;;;;;;;;;;-68
2023/06/10 09:55:45;;;;;;;;;;;;;;;31.22;35.77637;101770.3;;;;-69
2023/06/10 10:00:44;;;;;;;;;;;;;;;31.45;35.6543;101768.2;;;;-71
2023/06/10 10:05:44;;;;;;;;;;;;;;;31.65;34.88184;101775.9;;;;-68
2023/06/10 10:10:45;;;;;;;;;;;;;;;31.78;34.73926;101778.4;;;;-65
2023/06/10 10:15:47;;;;;;;;;;;;;;;31.92;34.43164;101772.2;;;;-66
2023/06/10 10:20:49;;;;;;;;;;;;;;;31.95;33.83398;101769.9;;;;-66
2023/06/10 10:22:20;;;;;;;0.2;0;;;;;;;;;;;;;-66
2023/06/10 10:25:46;;;;;;;;;;;;;;;32;33.80176;101773;;;;-67
2023/06/10 10:30:46;;;;;;;;;;;;;;;32.04;34.09863;101770.8;;;;-66
2023/06/10 10:35:45;;;;;;;;;;;;;;;32.1;34.13965;101768.8;;;;-66
2023/06/10 10:40:45;;;;;;;;;;;;;;;32.23;34.51465;101762.5;;;;-67
2023/06/10 10:45:44;;;;;;;;;;;;;;;32.35;33.18066;101763.4;;;;-66
2023/06/10 10:50:44;;;;;;;;;;;;;;;32.47;33.93164;101752.7;;;;-65
2023/06/10 10:52:21;;;;;;;0.2;0;;;;;;;;;;;;;-66
2023/06/10 10:55:44;;;;;;;;;;;;;;;32.66;33.48535;101751.1;;;;-67
2023/06/10 11:00:47;;;;;;;;;;;;;;;32.88;33.54883;101749.3;;;;-67
2023/06/10 11:05:48;;;;;;;;;;;;;;;32.91;32.77246;101745.6;;;;-67
2023/06/10 11:10:45;;;;;;;;;;;;;;;32.97;32.94238;101736.5;;;;-65
2023/06/10 11:15:49;;;;;;;;;;;;;;;33.12;32.84668;101744.9;;;;-66
2023/06/10 11:20:55;;;;;;;;;;;;;;;33.19;32.60352;101734.3;;;;-66
2023/06/10 11:22:26;;;;;;;0.2;0.1;;;;;;;;;;;;;-66
2023/06/10 11:25:46;;;;;;;;;;;;;;;33.39;32.55859;101731.8;;;;-67
2023/06/10 11:30:46;;;;;;;;;;;;;;;33.6;32.63281;101727.8;;;;-66
2023/06/10 11:35:45;;;;;;;;;;;;;;;33.72;32.90137;101718.5;;;;-65
2023/06/10 11:40:50;;;;;;;;;;;;;;;33.92;32.72656;101722.3;;;;-65
2023/06/10 11:45:47;;;;;;;;;;;;;;;34.07;31.83789;101717.3;;;;-64
2023/06/10 11:50:45;;;;;;;;;;;;;;;34.19;32.09473;101720.3;;;;-66
2023/06/10 11:52:39;;;;;;;0.2;0;;;;;;;;;;;;;-66
2023/06/10 11:55:49;;;;;;;;;;;;;;;34.33;31.84375;101716.7;;;;-66
2023/06/10 12:00:51;;;;;;;;;;;;;;;34.53;31.91699;101718.9;;;;-66
2023/06/10 12:05:44;;;;;;;;;;;;;;;34.62;31.43848;101725;;;;-66
2023/06/10 12:10:48;;;;;;;;;;;;;;;34.65;30.96582;101715.3;;;;-68
2023/06/10 12:15:45;;;;;;;;;;;;;;;34.68;31.46484;101708.7;;;;-65
2023/06/10 12:20:44;;;;;;;;;;;;;;;34.81;31.94824;101707.3;;;;-66
2023/06/10 12:22:44;;;;;;;0.4;0.2;;;;;;;;;;;;;-67
2023/06/10 12:25:53;;;;;;;;;;;;;;;34.94;31.64941;101708.7;;;;-65
2023/06/10 12:30:44;;;;;;;;;;;;;;;35.1;31.12695;101708.4;;;;-65
2023/06/10 12:35:50;;;;;;;;;;;;;;;35.12;30.83105;101701.5;;;;-67
2023/06/10 12:40:44;;;;;;;;;;;;;;;35.16;30.81055;101702.8;;;;-66
2023/06/10 12:45:45;;;;;;;;;;;;;;;35.3;30.49902;101703.6;;;;-67
2023/06/10 12:50:45;;;;;;;;;;;;;;;35.28;30.1543;101699.2;;;;-67
2023/06/10 12:52:45;;;;;;;0.2;0;;;;;;;;;;;;;-66
2023/06/10 12:55:45;;;;;;;;;;;;;;;35.22;29.87695;101691.2;;;;-67
2023/06/10 13:00:44;;;;;;;;;;;;;;;35.32;30.99902;101694.8;;;;-65
2023/06/10 13:05:44;;;;;;;;;;;;;;;35.59;30.70898;101695.9;;;;-69
2023/06/10 13:10:44;;;;;;;;;;;;;;;35.79;30.19922;101689.5;;;;-67
2023/06/10 13:15:45;;;;;;;;;;;;;;;35.91;31.19434;101685.6;;;;-66
2023/06/10 13:20:46;;;;;;;;;;;;;;;36;30.60547;101684.5;;;;-67
2023/06/10 13:22:54;;;;;;;0.1;0;;;;;;;;;;;;;-67
2023/06/10 13:25:44;;;;;;;;;;;;;;;36.14;29.63965;101680;;;;-66
2023/06/10 13:30:44;;;;;;;;;;;;;;;36.14;29.99609;101676.1;;;;-67
2023/06/10 13:35:45;;;;;;;;;;;;;;;36.22;30.0127;101669.6;;;;-67
2023/06/10 13:40:44;;;;;;;;;;;;;;;36.24;29.22949;101666;;;;-66
2023/06/10 13:45:45;;;;;;;;;;;;;;;36.27;28.99316;101665.3;;;;-67
2023/06/10 13:50:45;;;;;;;;;;;;;;;36.26;28.56445;101661.5;;;;-69
2023/06/10 13:52:58;;;;;;;0.2;0;;;;;;;;;;;;;-72
2023/06/10 13:55:44;;;;;;;;;;;;;;;36.23;28.30078;101663.8;;;;-71
2023/06/10 14:00:47;;;;;;;;;;;;;;;36.26;28.45703;101658.9;;;;-70
2023/06/10 14:05:47;;;;;;;;;;;;;;;36.15;28.09375;101656;;;;-70
2023/06/10 14:10:44;;;;;;;;;;;;;;;36.13;28.54395;101651.4;;;;-70
2023/06/10 14:15:45;;;;;;;;;;;;;;;36.2;28.17871;101653.9;;;;-72
2023/06/10 14:20:44;;;;;;;;;;;;;;;36.25;27.33691;101655.9;;;;-70
2023/06/10 14:23:05;;;;;;;0.3;0.2;;;;;;;;;;;;;-70
2023/06/10 14:25:46;;;;;;;;;;;;;;;36.07;26.92188;101652.2;;;;-70
2023/06/10 14:30:44;;;;;;;;;;;;;;;35.97;26.53516;101644.7;;;;-69
2023/06/10 14:35:44;;;;;;;;;;;;;;;35.91;27.38867;101643;;;;-69
2023/06/10 14:40:44;;;;;;;;;;;;;;;36;26.69141;101640.3;;;;-69
2023/06/10 14:45:45;;;;;;;;;;;;;;;35.86;26.87402;101639.7;;;;-71
2023/06/10 14:50:50;;;;;;;;;;;;;;;35.82;27.12109;101646.7;;;;-69
2023/06/10 14:53:11;;;;;;;0.1;0;;;;;;;;;;;;;-69
2023/06/10 14:55:44;;;;;;;;;;;;;;;35.86;27.3623;101643.9;;;;-71
2023/06/10 15:00:44;;;;;;;;;;;;;;;35.95;26.65332;101644.2;;;;-69
2023/06/10 15:05:44;;;;;;;;;;;;;;;35.91;26.3418;101636.3;;;;-70
2023/06/10 15:10:45;;;;;;;;;;;;;;;35.77;25.78613;101646.4;;;;-69
2023/06/10 15:15:44;;;;;;;;;;;;;;;35.69;26.4707;101648.9;;;;-70
2023/06/10 15:20:44;;;;;;;;;;;;;;;35.64;26.1123;101644;;;;-69
2023/06/10 15:23:18;;;;;;;0.2;0;;;;;;;;;;;;;-68
2023/06/10 15:25:46;;;;;;;;;;;;;;;35.56;26.17871;101638.4;;;;-71
2023/06/10 15:30:44;;;;;;;;;;;;;;;35.47;25.60254;101634.4;;;;-72
2023/06/10 15:35:45;;;;;;;;;;;;;;;35.43;24.95898;101633.2;;;;-70
2023/06/10 15:40:45;;;;;;;;;;;;;;;35.26;25.21094;101626.3;;;;-70
2023/06/10 15:45:44;;;;;;;;;;;;;;;35.18;25.47949;101624.3;;;;-70
2023/06/10 15:50:47;;;;;;;;;;;;;;;35.07;25.56836;101623.2;;;;-70
2023/06/10 15:53:24;;;;;;;0.3;0.3;;;;;;;;;;;;;-68
2023/06/10 15:55:44;;;;;;;;;;;;;;;34.97;25.05176;101625;;;;-70
2023/06/10 16:05:44;;;;;;;;;;;;;;;34.61;25.49512;101611.8;;;;-70
2023/06/10 16:10:44;;;;;;;;;;;;;;;34.47;25.22656;101604.8;;;;-70
2023/06/10 16:15:44;;;;;;;;;;;;;;;34.37;24.75781;101602.2;;;;-66
2023/06/10 16:20:44;;;;;;;;;;;;;;;34.2;24.99805;101596;;;;-67
2023/06/10 16:23:31;;;;;;;0.2;0;;;;;;;;;;;;;-70
2023/06/10 16:25:45;;;;;;;;;;;;;;;34.15;24.9248;101592.7;;;;-67
2023/06/10 16:30:44;;;;;;;;;;;;;;;33.97;25.60156;101585.2;;;;-67
2023/06/10 16:35:45;;;;;;;;;;;;;;;33.76;25.56641;101584.8;;;;-66
2023/06/10 16:40:44;;;;;;;;;;;;;;;33.59;26.17285;101582;;;;-66
2023/06/10 16:45:44;;;;;;;;;;;;;;;33.45;25.83301;101579;;;;-68
2023/06/10 16:50:47;;;;;;;;;;;;;;;33.31;25.46973;101582.3;;;;-67
2023/06/10 16:53:37;;;;;;;0.7;0.3;;;;;;;;;;;;;-67
2023/06/10 16:55:44;;;;;;;;;;;;;;;33.14;26.11133;101576.9;;;;-66
2023/06/10 17:00:45;;;;;;;;;;;;;;;32.97;25.87695;101575;;;;-68
2023/06/10 17:05:44;;;;;;;;;;;;;;;32.8;26.02148;101576.8;;;;-66
2023/06/10 17:10:44;;;;;;;;;;;;;;;32.63;26.80371;101579.2;;;;-67
2023/06/10 17:15:44;;;;;;;;;;;;;;;32.53;27.31641;101577.4;;;;-68
2023/06/10 17:20:44;;;;;;;;;;;;;;;32.3;27.30371;101575.4;;;;-68
2023/06/10 17:23:43;;;;;;;0.2;0;;;;;;;;;;;;;-66
2023/06/10 17:25:44;;;;;;;;;;;;;;;32.15;27.47168;101583.8;;;;-66
2023/06/10 17:30:45;;;;;;;;;;;;;;;31.98;27.2959;101582.2;;;;-65
2023/06/10 17:35:44;;;;;;;;;;;;;;;31.81;27.68652;101584;;;;-67
2023/06/10 17:40:44;;;;;;;;;;;;;;;31.67;27.7959;101587.3;;;;-67
2023/06/10 17:45:44;;;;;;;;;;;;;;;31.42;27.69824;101581;;;;-66
2023/06/10 17:50:44;;;;;;;;;;;;;;;31.21;27.95605;101583.4;;;;-66
2023/06/10 17:53:50;;;;;;;0.2;0;;;;;;;;;;;;;-66
2023/06/10 17:55:44;;;;;;;;;;;;;;;31.02;27.69727;101586.1;;;;-66
2023/06/10 18:00:45;;;;;;;;;;;;;;;30.86;28.08789;101587.7;;;;-66
2023/06/10 18:05:45;;;;;;;;;;;;;;;30.72;28.45508;101591;;;;-67
2023/06/10 18:10:47;;;;;;;;;;;;;;;30.6;28.30664;101590.5;;;;-65
2023/06/10 18:15:44;;;;;;;;;;;;;;;30.42;28.33008;101589;;;;-67
2023/06/10 18:20:44;;;;;;;;;;;;;;;30.33;28.63086;101588.7;;;;-67
2023/06/10 18:23:55;;;;;;;0.3;0.1;;;;;;;;;;;;;-67
2023/06/10 18:25:44;;;;;;;;;;;;;;;30.22;28.68262;101588.8;;;;-67
2023/06/10 18:30:45;;;;;;;;;;;;;;;30.12;28.83984;101593;;;;-66
2023/06/10 18:35:44;;;;;;;;;;;;;;;30.05;29.04688;101589.2;;;;-69
2023/06/10 18:40:44;;;;;;;;;;;;;;;29.94;29.32227;101585.7;;;;-67
2023/06/10 18:45:44;;;;;;;;;;;;;;;29.78;29.44043;101598.5;;;;-69
2023/06/10 18:50:46;;;;;;;;;;;;;;;29.61;29.98047;101600.3;;;;-70
2023/06/10 18:54:01;;;;;;;0.4;0.1;;;;;;;;;;;;;-71
2023/06/10 18:56:02;;;;;;;;;;;;;;;29.4;30.13086;101605.5;;;;-69
2023/06/10 19:00:44;;;;;;;;;;;;;;;29.16;30.4541;101609.1;;;;-71
2023/06/10 19:05:44;;;;;;;;;;;;;;;28.88;31.58301;101611.4;;;;-71
2023/06/10 19:10:44;;;;;;;;;;;;;;;28.67;31.54395;101616.4;;;;-72
2023/06/10 19:15:44;;;;;;;;;;;;;;;28.43;32.46289;101621.2;;;;-69
2023/06/10 19:20:44;;;;;;;;;;;;;;;28.18;33.11035;101630.8;;;;-71
2023/06/10 19:24:05;;;;;;;0.1;0;;;;;;;;;;;;;-70
2023/06/10 19:25:44;;;;;;;;;;;;;;;27.97;33.08398;101632.8;;;;-68
2023/06/10 19:30:45;;;;;;;;;;;;;;;27.76;33.53516;101635.5;;;;-65
2023/06/10 19:35:45;;;;;;;;;;;;;;;27.53;34.01855;101641.1;;;;-66
2023/06/10 19:40:44;;;;;;;;;;;;;;;27.3;34.51465;101642.4;;;;-66
2023/06/10 19:45:44;;;;;;;;;;;;;;;27.08;35.16113;101647.3;;;;-67
2023/06/10 19:50:44;;;;;;;;;;;;;;;26.9;34.96094;101655.6;;;;-67
2023/06/10 19:54:10;;;;;;;1.7;0.5;;;;;;;;;;;;;-67
2023/06/10 19:55:44;;;;;;;;;;;;;;;26.7;35.8877;101654.8;;;;-69
2023/06/10 20:00:45;;;;;;;;;;;;;;;26.47;36.25293;101656.7;;;;-67
2023/06/10 20:05:44;;;;;;;;;;;;;;;26.27;36.88672;101659.1;;;;-66
2023/06/10 20:10:45;;;;;;;;;;;;;;;26.09;37.0459;101660.2;;;;-66
2023/06/10 20:15:44;;;;;;;;;;;;;;;25.9;38.13379;101664.4;;;;-66
2023/06/10 20:20:44;;;;;;;;;;;;;;;25.7;38.29102;101667;;;;-67
2023/06/10 20:24:15;;;;;;;0.2;0.1;;;;;;;;;;;;;-66
2023/06/10 20:25:44;;;;;;;;;;;;;;;25.56;38.5332;101676.7;;;;-68
2023/06/10 20:30:44;;;;;;;;;;;;;;;25.37;39.55957;101681.4;;;;-69
2023/06/10 20:35:47;;;;;;;;;;;;;;;25.18;39.84375;101682.6;;;;-66
2023/06/10 20:40:44;;;;;;;;;;;;;;;25.02;40.29297;101683.8;;;;-67
2023/06/10 20:45:44;;;;;;;;;;;;;;;24.87;40.38184;101688.4;;;;-67
2023/06/10 20:50:44;;;;;;;;;;;;;;;24.7;41.24707;101688.3;;;;-68
2023/06/10 20:54:19;;;;;;;0.3;0.1;;;;;;;;;;;;;-67
2023/06/10 20:55:44;;;;;;;;;;;;;;;24.55;41.14063;101692.6;;;;-67
2023/06/10 21:00:45;;;;;;;;;;;;;;;24.42;41.98242;101696.5;;;;-69
2023/06/10 21:05:44;;;;;;;;;;;;;;;24.29;42.23633;101694.6;;;;-69
2023/06/10 21:10:46;;;;;;;;;;;;;;;24.17;42.85938;101699.9;;;;-69
2023/06/10 21:15:46;;;;;;;;;;;;;;;24.07;43.69238;101699.3;;;;-69
2023/06/10 21:20:44;;;;;;;;;;;;;;;23.92;43.16992;101704.8;;;;-69
2023/06/10 21:24:23;;;;;;;0.3;0.1;;;;;;;;;;;;;-68
2023/06/10 21:25:44;;;;;;;;;;;;;;;23.79;44.04492;101703.4;;;;-68
2023/06/10 21:30:44;;;;;;;;;;;;;;;23.7;43.74805;101704.8;;;;-68
2023/06/10 21:35:44;;;;;;;;;;;;;;;23.55;44.32129;101706.6;;;;-71
2023/06/10 21:40:44;;;;;;;;;;;;;;;23.46;44.95703;101701.7;;;;-68
2023/06/10 21:45:44;;;;;;;;;;;;;;;23.36;45.47656;101706;;;;-68
2023/06/10 21:50:45;;;;;;;;;;;;;;;23.29;45.18164;101708.8;;;;-68
2023/06/10 21:54:29;;;;;;;0.2;0.1;;;;;;;;;;;;;-67
2023/06/10 21:55:44;;;;;;;;;;;;;;;23.14;45.63867;101707.2;;;;-68
2023/06/10 22:00:44;;;;;;;;;;;;;;;23.09;46.55371;101708.2;;;;-68
2023/06/10 22:05:44;;;;;;;;;;;;;;;22.97;46.12695;101709.2;;;;-69
2023/06/10 22:10:44;;;;;;;;;;;;;;;22.87;46.52051;101705.9;;;;-69
2023/06/10 22:15:44;;;;;;;;;;;;;;;22.81;46.89258;101705.4;;;;-70
2023/06/10 22:20:44;;;;;;;;;;;;;;;22.7;47.11133;101704.5;;;;-69
2023/06/10 22:24:31;;;;;;;0.2;0.1;;;;;;;;;;;;;-67
2023/06/10 22:25:46;;;;;;;;;;;;;;;22.59;47.81055;101702.7;;;;-68
2023/06/10 22:30:46;;;;;;;;;;;;;;;22.53;47.49609;101705;;;;-68
2023/06/10 22:35:44;;;;;;;;;;;;;;;22.47;47.77539;101695.2;;;;-68
2023/06/10 22:40:47;;;;;;;;;;;;;;;22.34;48.67969;101699.1;;;;-68
2023/06/10 22:45:45;;;;;;;;;;;;;;;22.29;48.7666;101699.4;;;;-68
2023/06/10 22:50:44;;;;;;;;;;;;;;;22.18;48.85742;101697.9;;;;-68
2023/06/10 22:54:37;;;;;;;0.2;0.1;;;;;;;;;;;;;-67
2023/06/10 22:55:44;;;;;;;;;;;;;;;22.13;48.89746;101699.6;;;;-68
2023/06/10 23:00:45;;;;;;;;;;;;;;;22.01;49.38965;101694.6;;;;-66
2023/06/10 23:05:44;;;;;;;;;;;;;;;21.97;49.41797;101692.4;;;;-68
2023/06/10 23:10:46;;;;;;;;;;;;;;;21.95;49.51855;101686.6;;;;-68
2023/06/10 23:15:44;;;;;;;;;;;;;;;21.85;49.66895;101691.1;;;;-68
2023/06/10 23:20:44;;;;;;;;;;;;;;;21.77;50.27832;101686;;;;-68
2023/06/10 23:24:40;;;;;;;0.4;0.2;;;;;;;;;;;;;-68
2023/06/10 23:25:44;;;;;;;;;;;;;;;21.73;49.88477;101686.9;;;;-67
2023/06/10 23:30:44;;;;;;;;;;;;;;;21.67;49.80859;101682.6;;;;-68
2023/06/10 23:35:45;;;;;;;;;;;;;;;21.59;49.71973;101686.5;;;;-68
2023/06/10 23:40:44;;;;;;;;;;;;;;;21.54;49.81836;101678.7;;;;-68
2023/06/10 23:45:44;;;;;;;;;;;;;;;21.47;49.93555;101679.2;;;;-70
2023/06/10 23:50:44;;;;;;;;;;;;;;;21.43;49.77051;101680.4;;;;-69
2023/06/10 23:54:41;;;;;;;0.2;0.1;;;;;;;;;;;;;-68
2023/06/10 23:55:45;;;;;;;;;;;;;;;21.38;49.2959;101674.5;;;;-68
